CZST

Stewart Airport

Stewart, , Canada
METAR CZST 120000Z 11003KT 080V250 12SM -RA FEW012 BKN025 OVC045 02/01 A2922 RMK SC2SC4SC2 CLIMAT 3.2/0.0/5.2 SLP895
Observed Flight Rules
Dec-12 @ 00:00 UTC (42 minutes ago) Marginal Visual Flight Rules
Wind Visibility Clouds Conditions
110° at 3 knots 12 miles
  • Few at 1,200' AGL
  • Broken at 2,500' AGL
  • Overcast at 4,500' AGL
  • Light Rain
Temperatures Readings
Current 2°C / 36°F
Dewpoint 1°C / 34°F
Humidity 93%
Altimeter 29.22" Hg
Pressure 989.5 hPa
Elevation 7
METAR CZST 120000Z 11003KT 080V250 12SM -RA FEW012 BKN025 OVC045 02/01 A2922 RMK SC2SC4SC2 CLIMAT 3.2/0.0/5.2 SLP895
Observed Flight Rules
Dec-12 @ 00:00 UTC
(42 minutes ago)
MVFR
Wind Visibility
110° at 3 knots 12 miles
Clouds
  • Few at 1,200' AGL
  • Broken at 2,500' AGL
  • Overcast at 4,500' AGL
Conditions
  • Light Rain
Temperature Dewpoint
2°C / 36°F 1°C / 34°F
Humidity Altimeter Pressure
93% 29.22" Hg 989.5 hPa